首页
METAR-TAF:

METAR-TAF

机场 :

成都双流国际机场

成都, 中华人民共和国

纬度: 30-40N, 经度: 104-01E, 海拔: 508米

当前天气观测

该预报发布于47分钟前的01:00 UTC
静风
温度 13°C
湿度 100%
气压 1020 hPa
能見度: 2000
轻雾

METAR: ZUUU 070100Z 00000MPS 2000 BR NSC 13/13 Q1020 BECMG TL0230 3000

时间: 09:47 (01:47 UTC)

预报

该预报发布于4小时和43分钟前的21:04 UTC
预报有效从07日的 00点(UTC)到 07日的 24点(UTC)
风速6节,风向
能見度: 2000
散云层高于5000英尺
轻雾
成为
从 07日的 01点(UTC)到 07日的 02点(UTC)
能見度: 5000

TAF: ZUUU 062104Z 0700/0724 18003MPS 2000 BR SCT050 TX20/0707Z TN09/0700Z BECMG 0701/0702 5000

超过4000个机场的气象观测和天气预报(METAR&TAF报告)。

可查询的气象台以黄色和红色小点在地图上表示。

将鼠标移到小点上方,可查看气象台名称。

然后点击查看天气观测和预报。

如需切换地图:点击带黑十字的绿色按钮放大地图;点击带横线的绿色按钮缩小地图;或者点击绿色箭头查看邻近地区的地图。


METAR-TAF: